sensor_id;sensor_type;location;lat;lon;timestamp;P1;durP1;ratioP1;P2;durP2;ratioP2
16862;SDS011;52193;48.216;-1.698;2023-04-10T00:02:26;2.08;;;1.98;;
16862;SDS011;52193;48.216;-1.698;2023-04-10T00:04:55;2.83;;;2.60;;
16862;SDS011;52193;48.216;-1.698;2023-04-10T00:07:22;2.38;;;2.17;;
16862;SDS011;52193;48.216;-1.698;2023-04-10T00:09:48;2.90;;;2.60;;
16862;SDS011;52193;48.216;-1.698;2023-04-10T00:12:16;2.20;;;2.10;;
16862;SDS011;52193;48.216;-1.698;2023-04-10T00:14:43;2.47;;;2.38;;
16862;SDS011;52193;48.216;-1.698;2023-04-10T00:17:10;2.35;;;2.25;;
16862;SDS011;52193;48.216;-1.698;2023-04-10T00:19:37;2.10;;;1.95;;
16862;SDS011;52193;48.216;-1.698;2023-04-10T00:22:05;2.00;;;1.90;;
16862;SDS011;52193;48.216;-1.698;2023-04-10T00:24:33;2.60;;;2.40;;
16862;SDS011;52193;48.216;-1.698;2023-04-10T00:27:00;2.90;;;2.70;;
16862;SDS011;52193;48.216;-1.698;2023-04-10T00:29:26;2.40;;;2.30;;
16862;SDS011;52193;48.216;-1.698;2023-04-10T00:31:53;2.25;;;2.15;;
16862;SDS011;52193;48.216;-1.698;2023-04-10T00:34:20;2.30;;;2.20;;
16862;SDS011;52193;48.216;-1.698;2023-04-10T00:36:47;3.20;;;2.20;;
16862;SDS011;52193;48.216;-1.698;2023-04-10T00:39:15;2.10;;;2.00;;
16862;SDS011;52193;48.216;-1.698;2023-04-10T00:41:42;2.50;;;2.30;;
16862;SDS011;52193;48.216;-1.698;2023-04-10T00:44:09;2.42;;;2.33;;
16862;SDS011;52193;48.216;-1.698;2023-04-10T00:46:36;2.40;;;2.30;;
16862;SDS011;52193;48.216;-1.698;2023-04-10T00:49:05;2.25;;;2.15;;
16862;SDS011;52193;48.216;-1.698;2023-04-10T00:51:33;2.55;;;2.20;;
16862;SDS011;52193;48.216;-1.698;2023-04-10T00:54:01;2.65;;;2.45;;
16862;SDS011;52193;48.216;-1.698;2023-04-10T00:56:32;2.75;;;2.55;;
16862;SDS011;52193;48.216;-1.698;2023-04-10T00:58:59;2.92;;;2.72;;
16862;SDS011;52193;48.216;-1.698;2023-04-10T01:01:26;2.58;;;2.45;;
16862;SDS011;52193;48.216;-1.698;2023-04-10T01:03:53;2.15;;;2.05;;
16862;SDS011;52193;48.216;-1.698;2023-04-10T01:06:23;2.90;;;2.60;;
16862;SDS011;52193;48.216;-1.698;2023-04-10T01:08:59;2.42;;;2.22;;
16862;SDS011;52193;48.216;-1.698;2023-04-10T01:11:38;2.30;;;2.20;;
16862;SDS011;52193;48.216;-1.698;2023-04-10T01:14:14;2.90;;;2.70;;
16862;SDS011;52193;48.216;-1.698;2023-04-10T01:16:57;2.88;;;2.67;;
16862;SDS011;52193;48.216;-1.698;2023-04-10T01:19:35;2.72;;;2.60;;
16862;SDS011;52193;48.216;-1.698;2023-04-10T01:22:25;2.60;;;2.40;;
16862;SDS011;52193;48.216;-1.698;2023-04-10T01:25:00;2.30;;;2.20;;
16862;SDS011;52193;48.216;-1.698;2023-04-10T01:27:52;2.70;;;2.30;;
16862;SDS011;52193;48.216;-1.698;2023-04-10T01:30:38;3.17;;;2.70;;
16862;SDS011;52193;48.216;-1.698;2023-04-10T01:33:06;2.30;;;2.10;;
16862;SDS011;52193;48.216;-1.698;2023-04-10T01:35:37;2.30;;;2.20;;
16862;SDS011;52193;48.216;-1.698;2023-04-10T01:38:06;2.30;;;2.20;;
16862;SDS011;52193;48.216;-1.698;2023-04-10T01:40:34;3.15;;;2.50;;
16862;SDS011;52193;48.216;-1.698;2023-04-10T01:43:05;2.45;;;2.35;;
16862;SDS011;52193;48.216;-1.698;2023-04-10T01:45:35;2.83;;;2.63;;
16862;SDS011;52193;48.216;-1.698;2023-04-10T01:48:05;4.68;;;3.10;;
16862;SDS011;52193;48.216;-1.698;2023-04-10T01:50:33;2.75;;;2.55;;
16862;SDS011;52193;48.216;-1.698;2023-04-10T01:53:01;2.20;;;2.10;;
16862;SDS011;52193;48.216;-1.698;2023-04-10T01:55:29;2.83;;;2.63;;
16862;SDS011;52193;48.216;-1.698;2023-04-10T01:57:57;2.97;;;2.72;;
16862;SDS011;52193;48.216;-1.698;2023-04-10T02:00:25;3.00;;;2.80;;
16862;SDS011;52193;48.216;-1.698;2023-04-10T02:02:53;3.65;;;3.33;;
16862;SDS011;52193;48.216;-1.698;2023-04-10T02:05:22;3.30;;;3.00;;
16862;SDS011;52193;48.216;-1.698;2023-04-10T02:07:54;3.35;;;3.05;;
16862;SDS011;52193;48.216;-1.698;2023-04-10T02:10:27;3.20;;;3.00;;
16862;SDS011;52193;48.216;-1.698;2023-04-10T02:12:58;2.60;;;2.40;;
16862;SDS011;52193;48.216;-1.698;2023-04-10T02:15:30;3.35;;;3.05;;
16862;SDS011;52193;48.216;-1.698;2023-04-10T02:18:01;2.88;;;2.67;;
16862;SDS011;52193;48.216;-1.698;2023-04-10T02:20:30;3.30;;;2.63;;
16862;SDS011;52193;48.216;-1.698;2023-04-10T02:22:58;2.90;;;2.60;;
16862;SDS011;52193;48.216;-1.698;2023-04-10T02:25:29;2.78;;;2.67;;
16862;SDS011;52193;48.216;-1.698;2023-04-10T02:27:57;2.80;;;2.60;;
16862;SDS011;52193;48.216;-1.698;2023-04-10T02:30:24;3.45;;;3.15;;
16862;SDS011;52193;48.216;-1.698;2023-04-10T02:32:51;3.33;;;3.05;;
16862;SDS011;52193;48.216;-1.698;2023-04-10T02:35:19;3.28;;;3.00;;
16862;SDS011;52193;48.216;-1.698;2023-04-10T02:37:46;3.40;;;3.15;;
16862;SDS011;52193;48.216;-1.698;2023-04-10T02:40:14;3.50;;;3.20;;
16862;SDS011;52193;48.216;-1.698;2023-04-10T02:42:41;2.58;;;2.47;;
16862;SDS011;52193;48.216;-1.698;2023-04-10T02:45:08;2.60;;;2.50;;
16862;SDS011;52193;48.216;-1.698;2023-04-10T02:47:35;2.92;;;2.70;;
16862;SDS011;52193;48.216;-1.698;2023-04-10T02:50:03;2.88;;;2.67;;
16862;SDS011;52193;48.216;-1.698;2023-04-10T02:52:31;2.60;;;2.50;;
16862;SDS011;52193;48.216;-1.698;2023-04-10T02:54:58;3.10;;;2.90;;
16862;SDS011;52193;48.216;-1.698;2023-04-10T02:57:25;3.95;;;3.50;;
16862;SDS011;52193;48.216;-1.698;2023-04-10T02:59:53;2.60;;;2.50;;
16862;SDS011;52193;48.216;-1.698;2023-04-10T03:02:20;3.80;;;3.45;;
16862;SDS011;52193;48.216;-1.698;2023-04-10T03:04:46;3.60;;;3.30;;
16862;SDS011;52193;48.216;-1.698;2023-04-10T03:07:13;3.45;;;3.15;;
16862;SDS011;52193;48.216;-1.698;2023-04-10T03:09:42;3.10;;;2.90;;
16862;SDS011;52193;48.216;-1.698;2023-04-10T03:12:09;3.45;;;3.15;;
16862;SDS011;52193;48.216;-1.698;2023-04-10T03:14:36;3.97;;;3.45;;
16862;SDS011;52193;48.216;-1.698;2023-04-10T03:17:03;3.00;;;2.80;;
16862;SDS011;52193;48.216;-1.698;2023-04-10T03:19:30;4.03;;;3.33;;
16862;SDS011;52193;48.216;-1.698;2023-04-10T03:21:57;3.30;;;3.10;;
16862;SDS011;52193;48.216;-1.698;2023-04-10T03:24:24;3.70;;;3.40;;
16862;SDS011;52193;48.216;-1.698;2023-04-10T03:26:52;3.30;;;3.10;;
16862;SDS011;52193;48.216;-1.698;2023-04-10T03:29:21;3.45;;;3.25;;
16862;SDS011;52193;48.216;-1.698;2023-04-10T03:31:48;3.30;;;3.10;;
16862;SDS011;52193;48.216;-1.698;2023-04-10T03:34:15;4.07;;;3.78;;
16862;SDS011;52193;48.216;-1.698;2023-04-10T03:36:42;3.80;;;3.50;;
16862;SDS011;52193;48.216;-1.698;2023-04-10T03:39:10;4.40;;;4.00;;
16862;SDS011;52193;48.216;-1.698;2023-04-10T03:41:37;4.10;;;3.80;;
16862;SDS011;52193;48.216;-1.698;2023-04-10T03:44:05;3.22;;;3.03;;
16862;SDS011;52193;48.216;-1.698;2023-04-10T03:46:32;3.72;;;3.42;;
16862;SDS011;52193;48.216;-1.698;2023-04-10T03:48:59;4.10;;;3.80;;
16862;SDS011;52193;48.216;-1.698;2023-04-10T03:51:26;4.28;;;3.97;;
16862;SDS011;52193;48.216;-1.698;2023-04-10T03:53:53;4.00;;;3.70;;
16862;SDS011;52193;48.216;-1.698;2023-04-10T03:56:20;3.90;;;3.70;;
16862;SDS011;52193;48.216;-1.698;2023-04-10T03:58:47;4.20;;;3.90;;
16862;SDS011;52193;48.216;-1.698;2023-04-10T04:01:16;4.35;;;4.05;;
16862;SDS011;52193;48.216;-1.698;2023-04-10T04:03:42;3.95;;;3.65;;
16862;SDS011;52193;48.216;-1.698;2023-04-10T04:06:09;3.60;;;3.40;;
16862;SDS011;52193;48.216;-1.698;2023-04-10T04:08:36;4.70;;;4.30;;
16862;SDS011;52193;48.216;-1.698;2023-04-10T04:11:03;4.72;;;4.32;;
16862;SDS011;52193;48.216;-1.698;2023-04-10T04:13:31;3.63;;;3.40;;
16862;SDS011;52193;48.216;-1.698;2023-04-10T04:15:58;3.33;;;3.13;;
16862;SDS011;52193;48.216;-1.698;2023-04-10T04:18:26;4.70;;;4.30;;
16862;SDS011;52193;48.216;-1.698;2023-04-10T04:20:53;3.72;;;3.33;;
16862;SDS011;52193;48.216;-1.698;2023-04-10T04:23:20;4.45;;;4.15;;
16862;SDS011;52193;48.216;-1.698;2023-04-10T04:25:47;5.18;;;4.78;;
16862;SDS011;52193;48.216;-1.698;2023-04-10T04:28:16;4.20;;;3.80;;
16862;SDS011;52193;48.216;-1.698;2023-04-10T04:30:43;4.78;;;4.35;;
16862;SDS011;52193;48.216;-1.698;2023-04-10T04:33:10;4.90;;;4.53;;
16862;SDS011;52193;48.216;-1.698;2023-04-10T04:35:38;5.35;;;4.88;;
16862;SDS011;52193;48.216;-1.698;2023-04-10T04:38:05;4.72;;;4.25;;
16862;SDS011;52193;48.216;-1.698;2023-04-10T04:40:32;4.72;;;4.43;;
16862;SDS011;52193;48.216;-1.698;2023-04-10T04:42:59;5.38;;;4.88;;
16862;SDS011;52193;48.216;-1.698;2023-04-10T04:45:26;4.10;;;3.78;;
16862;SDS011;52193;48.216;-1.698;2023-04-10T04:47:55;3.90;;;3.55;;
16862;SDS011;52193;48.216;-1.698;2023-04-10T04:50:21;3.80;;;3.40;;
16862;SDS011;52193;48.216;-1.698;2023-04-10T04:52:50;4.60;;;4.22;;
16862;SDS011;52193;48.216;-1.698;2023-04-10T04:55:17;4.45;;;4.10;;
16862;SDS011;52193;48.216;-1.698;2023-04-10T04:57:44;4.50;;;4.20;;
16862;SDS011;52193;48.216;-1.698;2023-04-10T05:00:11;4.72;;;4.35;;
16862;SDS011;52193;48.216;-1.698;2023-04-10T05:02:38;4.25;;;3.95;;
16862;SDS011;52193;48.216;-1.698;2023-04-10T05:05:05;4.65;;;4.18;;
16862;SDS011;52193;48.216;-1.698;2023-04-10T05:07:32;4.47;;;4.18;;
16862;SDS011;52193;48.216;-1.698;2023-04-10T05:10:00;4.18;;;3.88;;
16862;SDS011;52193;48.216;-1.698;2023-04-10T05:12:27;5.22;;;4.72;;
16862;SDS011;52193;48.216;-1.698;2023-04-10T05:14:54;6.43;;;5.45;;
16862;SDS011;52193;48.216;-1.698;2023-04-10T05:17:21;5.55;;;5.15;;
16862;SDS011;52193;48.216;-1.698;2023-04-10T05:19:48;5.63;;;5.13;;
16862;SDS011;52193;48.216;-1.698;2023-04-10T05:22:15;5.25;;;4.85;;
16862;SDS011;52193;48.216;-1.698;2023-04-10T05:24:42;5.00;;;4.60;;
16862;SDS011;52193;48.216;-1.698;2023-04-10T05:27:10;5.18;;;4.78;;
16862;SDS011;52193;48.216;-1.698;2023-04-10T05:29:37;5.13;;;4.63;;
16862;SDS011;52193;48.216;-1.698;2023-04-10T05:32:04;4.63;;;4.30;;
16862;SDS011;52193;48.216;-1.698;2023-04-10T05:34:31;4.43;;;4.15;;
16862;SDS011;52193;48.216;-1.698;2023-04-10T05:36:58;5.18;;;4.75;;
16862;SDS011;52193;48.216;-1.698;2023-04-10T05:39:25;5.22;;;4.72;;
16862;SDS011;52193;48.216;-1.698;2023-04-10T05:41:52;5.72;;;5.22;;
16862;SDS011;52193;48.216;-1.698;2023-04-10T05:44:20;5.18;;;4.78;;
16862;SDS011;52193;48.216;-1.698;2023-04-10T05:46:47;5.82;;;5.32;;
16862;SDS011;52193;48.216;-1.698;2023-04-10T05:49:14;6.10;;;5.50;;
16862;SDS011;52193;48.216;-1.698;2023-04-10T05:51:41;5.20;;;4.70;;
16862;SDS011;52193;48.216;-1.698;2023-04-10T05:54:08;4.53;;;4.22;;
16862;SDS011;52193;48.216;-1.698;2023-04-10T05:56:35;5.20;;;4.80;;
16862;SDS011;52193;48.216;-1.698;2023-04-10T05:59:02;5.82;;;5.32;;
16862;SDS011;52193;48.216;-1.698;2023-04-10T06:01:30;7.20;;;6.47;;
16862;SDS011;52193;48.216;-1.698;2023-04-10T06:03:57;6.25;;;5.68;;
16862;SDS011;52193;48.216;-1.698;2023-04-10T06:06:24;5.60;;;5.10;;
16862;SDS011;52193;48.216;-1.698;2023-04-10T06:08:52;6.65;;;6.03;;
16862;SDS011;52193;48.216;-1.698;2023-04-10T06:11:18;6.93;;;5.88;;
16862;SDS011;52193;48.216;-1.698;2023-04-10T06:13:45;8.13;;;7.43;;
16862;SDS011;52193;48.216;-1.698;2023-04-10T06:16:12;7.05;;;6.32;;
16862;SDS011;52193;48.216;-1.698;2023-04-10T06:18:41;7.05;;;6.38;;
16862;SDS011;52193;48.216;-1.698;2023-04-10T06:21:09;7.10;;;6.70;;
16862;SDS011;52193;48.216;-1.698;2023-04-10T06:23:35;7.80;;;7.10;;
16862;SDS011;52193;48.216;-1.698;2023-04-10T06:26:02;7.75;;;7.20;;
16862;SDS011;52193;48.216;-1.698;2023-04-10T06:28:30;9.38;;;8.48;;
16862;SDS011;52193;48.216;-1.698;2023-04-10T06:30:56;6.88;;;6.47;;
16862;SDS011;52193;48.216;-1.698;2023-04-10T06:33:27;8.35;;;7.63;;
16862;SDS011;52193;48.216;-1.698;2023-04-10T06:35:55;7.75;;;7.15;;
16862;SDS011;52193;48.216;-1.698;2023-04-10T06:38:22;7.47;;;6.88;;
16862;SDS011;52193;48.216;-1.698;2023-04-10T06:40:49;8.10;;;7.47;;
16862;SDS011;52193;48.216;-1.698;2023-04-10T06:43:16;7.93;;;7.22;;
16862;SDS011;52193;48.216;-1.698;2023-04-10T06:45:43;7.82;;;7.22;;
16862;SDS011;52193;48.216;-1.698;2023-04-10T06:48:10;7.30;;;6.70;;
16862;SDS011;52193;48.216;-1.698;2023-04-10T06:50:37;7.40;;;6.90;;
16862;SDS011;52193;48.216;-1.698;2023-04-10T06:53:06;8.90;;;8.00;;
16862;SDS011;52193;48.216;-1.698;2023-04-10T06:55:33;8.98;;;8.20;;
16862;SDS011;52193;48.216;-1.698;2023-04-10T06:58:01;9.05;;;8.25;;
16862;SDS011;52193;48.216;-1.698;2023-04-10T07:00:28;8.82;;;8.20;;
16862;SDS011;52193;48.216;-1.698;2023-04-10T07:02:56;9.30;;;8.60;;
16862;SDS011;52193;48.216;-1.698;2023-04-10T07:05:22;9.93;;;9.18;;
16862;SDS011;52193;48.216;-1.698;2023-04-10T07:07:50;9.18;;;8.48;;
16862;SDS011;52193;48.216;-1.698;2023-04-10T07:10:18;10.52;;;9.70;;
16862;SDS011;52193;48.216;-1.698;2023-04-10T07:12:45;11.25;;;10.35;;
16862;SDS011;52193;48.216;-1.698;2023-04-10T07:15:12;10.95;;;10.05;;
16862;SDS011;52193;48.216;-1.698;2023-04-10T07:17:39;10.60;;;9.80;;
16862;SDS011;52193;48.216;-1.698;2023-04-10T07:20:06;11.15;;;10.35;;
16862;SDS011;52193;48.216;-1.698;2023-04-10T07:22:34;10.57;;;9.85;;
16862;SDS011;52193;48.216;-1.698;2023-04-10T07:25:01;10.98;;;10.23;;
16862;SDS011;52193;48.216;-1.698;2023-04-10T07:27:30;10.73;;;9.93;;
16862;SDS011;52193;48.216;-1.698;2023-04-10T07:29:57;12.00;;;11.00;;
16862;SDS011;52193;48.216;-1.698;2023-04-10T07:32:24;11.93;;;11.02;;
16862;SDS011;52193;48.216;-1.698;2023-04-10T07:34:50;11.13;;;10.30;;
16862;SDS011;52193;48.216;-1.698;2023-04-10T07:37:17;11.65;;;10.77;;
16862;SDS011;52193;48.216;-1.698;2023-04-10T07:39:45;12.45;;;11.20;;
16862;SDS011;52193;48.216;-1.698;2023-04-10T07:42:12;12.18;;;11.38;;
16862;SDS011;52193;48.216;-1.698;2023-04-10T07:44:40;11.27;;;10.38;;
16862;SDS011;52193;48.216;-1.698;2023-04-10T07:47:07;12.20;;;10.82;;
16862;SDS011;52193;48.216;-1.698;2023-04-10T07:49:35;12.85;;;11.55;;
16862;SDS011;52193;48.216;-1.698;2023-04-10T07:52:02;11.32;;;10.60;;
16862;SDS011;52193;48.216;-1.698;2023-04-10T07:54:30;12.07;;;11.25;;
16862;SDS011;52193;48.216;-1.698;2023-04-10T07:56:58;12.95;;;11.95;;
16862;SDS011;52193;48.216;-1.698;2023-04-10T07:59:25;12.95;;;11.88;;
16862;SDS011;52193;48.216;-1.698;2023-04-10T08:01:54;12.98;;;11.98;;
16862;SDS011;52193;48.216;-1.698;2023-04-10T08:04:21;13.02;;;12.10;;
16862;SDS011;52193;48.216;-1.698;2023-04-10T08:06:48;13.20;;;12.13;;
16862;SDS011;52193;48.216;-1.698;2023-04-10T08:09:15;13.13;;;12.15;;
16862;SDS011;52193;48.216;-1.698;2023-04-10T08:11:42;12.27;;;11.45;;
16862;SDS011;52193;48.216;-1.698;2023-04-10T08:14:09;13.50;;;12.35;;
16862;SDS011;52193;48.216;-1.698;2023-04-10T08:16:37;13.43;;;12.50;;
16862;SDS011;52193;48.216;-1.698;2023-04-10T08:19:05;13.23;;;12.27;;
16862;SDS011;52193;48.216;-1.698;2023-04-10T08:21:32;12.48;;;11.68;;
16862;SDS011;52193;48.216;-1.698;2023-04-10T08:23:59;12.82;;;11.85;;
16862;SDS011;52193;48.216;-1.698;2023-04-10T08:26:27;12.07;;;11.27;;
16862;SDS011;52193;48.216;-1.698;2023-04-10T08:28:55;12.60;;;11.80;;
16862;SDS011;52193;48.216;-1.698;2023-04-10T08:31:23;12.50;;;11.63;;
16862;SDS011;52193;48.216;-1.698;2023-04-10T08:33:51;13.35;;;12.55;;
16862;SDS011;52193;48.216;-1.698;2023-04-10T08:36:19;12.43;;;11.63;;
16862;SDS011;52193;48.216;-1.698;2023-04-10T08:38:47;13.10;;;12.10;;
16862;SDS011;52193;48.216;-1.698;2023-04-10T08:41:15;11.65;;;10.95;;
16862;SDS011;52193;48.216;-1.698;2023-04-10T08:43:42;13.23;;;12.13;;
16862;SDS011;52193;48.216;-1.698;2023-04-10T08:46:10;12.07;;;11.38;;
16862;SDS011;52193;48.216;-1.698;2023-04-10T08:48:37;13.10;;;12.07;;
16862;SDS011;52193;48.216;-1.698;2023-04-10T08:51:09;12.35;;;11.52;;
16862;SDS011;52193;48.216;-1.698;2023-04-10T08:53:43;13.00;;;12.05;;
16862;SDS011;52193;48.216;-1.698;2023-04-10T08:56:12;12.52;;;11.48;;
16862;SDS011;52193;48.216;-1.698;2023-04-10T08:58:41;12.18;;;11.25;;
16862;SDS011;52193;48.216;-1.698;2023-04-10T09:01:09;11.93;;;11.20;;
16862;SDS011;52193;48.216;-1.698;2023-04-10T09:03:36;11.15;;;10.20;;
16862;SDS011;52193;48.216;-1.698;2023-04-10T09:06:04;10.68;;;9.98;;
16862;SDS011;52193;48.216;-1.698;2023-04-10T09:08:31;11.25;;;10.40;;
16862;SDS011;52193;48.216;-1.698;2023-04-10T09:11:01;10.23;;;9.63;;
16862;SDS011;52193;48.216;-1.698;2023-04-10T09:13:35;10.55;;;9.88;;
16862;SDS011;52193;48.216;-1.698;2023-04-10T09:16:03;9.77;;;9.18;;
16862;SDS011;52193;48.216;-1.698;2023-04-10T09:18:41;9.18;;;8.57;;
16862;SDS011;52193;48.216;-1.698;2023-04-10T09:21:13;9.10;;;8.60;;
16862;SDS011;52193;48.216;-1.698;2023-04-10T09:23:41;9.40;;;8.80;;
16862;SDS011;52193;48.216;-1.698;2023-04-10T09:26:26;9.55;;;8.80;;
16862;SDS011;52193;48.216;-1.698;2023-04-10T09:28:55;9.18;;;8.57;;
16862;SDS011;52193;48.216;-1.698;2023-04-10T09:31:31;8.70;;;8.20;;
16862;SDS011;52193;48.216;-1.698;2023-04-10T09:34:06;8.50;;;8.00;;
16862;SDS011;52193;48.216;-1.698;2023-04-10T09:36:35;8.57;;;8.07;;
16862;SDS011;52193;48.216;-1.698;2023-04-10T09:39:02;9.23;;;8.68;;
16862;SDS011;52193;48.216;-1.698;2023-04-10T09:41:31;9.27;;;8.68;;
16862;SDS011;52193;48.216;-1.698;2023-04-10T09:44:05;8.98;;;8.38;;
16862;SDS011;52193;48.216;-1.698;2023-04-10T09:46:32;8.60;;;8.02;;
16862;SDS011;52193;48.216;-1.698;2023-04-10T09:49:00;8.52;;;7.97;;
16862;SDS011;52193;48.216;-1.698;2023-04-10T09:51:29;9.38;;;8.63;;
16862;SDS011;52193;48.216;-1.698;2023-04-10T09:53:58;8.93;;;8.43;;
16862;SDS011;52193;48.216;-1.698;2023-04-10T09:56:25;9.13;;;8.38;;
16862;SDS011;52193;48.216;-1.698;2023-04-10T09:58:55;8.82;;;8.10;;
16862;SDS011;52193;48.216;-1.698;2023-04-10T10:01:24;8.48;;;7.78;;
16862;SDS011;52193;48.216;-1.698;2023-04-10T10:03:53;8.52;;;7.82;;
16862;SDS011;52193;48.216;-1.698;2023-04-10T10:06:20;8.55;;;7.82;;
16862;SDS011;52193;48.216;-1.698;2023-04-10T10:08:48;9.27;;;8.43;;
16862;SDS011;52193;48.216;-1.698;2023-04-10T10:11:16;7.97;;;7.47;;
16862;SDS011;52193;48.216;-1.698;2023-04-10T10:13:47;8.45;;;7.85;;
16862;SDS011;52193;48.216;-1.698;2023-04-10T10:16:19;8.68;;;8.00;;
16862;SDS011;52193;48.216;-1.698;2023-04-10T10:18:50;9.65;;;8.82;;
16862;SDS011;52193;48.216;-1.698;2023-04-10T10:21:21;8.15;;;7.55;;
16862;SDS011;52193;48.216;-1.698;2023-04-10T10:23:50;8.13;;;7.53;;
16862;SDS011;52193;48.216;-1.698;2023-04-10T10:26:19;8.98;;;8.38;;
16862;SDS011;52193;48.216;-1.698;2023-04-10T10:28:47;8.38;;;7.78;;
16862;SDS011;52193;48.216;-1.698;2023-04-10T10:31:15;7.28;;;6.88;;
16862;SDS011;52193;48.216;-1.698;2023-04-10T10:33:45;7.55;;;7.15;;
16862;SDS011;52193;48.216;-1.698;2023-04-10T10:36:13;7.13;;;6.63;;
16862;SDS011;52193;48.216;-1.698;2023-04-10T10:38:44;6.90;;;6.50;;
16862;SDS011;52193;48.216;-1.698;2023-04-10T10:41:19;8.38;;;7.78;;
16862;SDS011;52193;48.216;-1.698;2023-04-10T10:43:52;8.88;;;8.30;;
16862;SDS011;52193;48.216;-1.698;2023-04-10T10:46:31;8.25;;;7.75;;
16862;SDS011;52193;48.216;-1.698;2023-04-10T10:49:03;9.40;;;8.80;;
16862;SDS011;52193;48.216;-1.698;2023-04-10T10:51:41;8.98;;;8.57;;
16862;SDS011;52193;48.216;-1.698;2023-04-10T10:56:53;8.88;;;8.38;;
16862;SDS011;52193;48.216;-1.698;2023-04-10T11:02:21;9.65;;;9.15;;
16862;SDS011;52193;48.216;-1.698;2023-04-10T11:04:50;9.45;;;8.85;;
16862;SDS011;52193;48.216;-1.698;2023-04-10T11:07:17;8.95;;;8.45;;
16862;SDS011;52193;48.216;-1.698;2023-04-10T11:09:45;9.80;;;9.30;;
16862;SDS011;52193;48.216;-1.698;2023-04-10T11:12:17;9.25;;;8.75;;
16862;SDS011;52193;48.216;-1.698;2023-04-10T11:14:55;10.27;;;9.80;;
16862;SDS011;52193;48.216;-1.698;2023-04-10T11:20:15;11.20;;;10.60;;
16862;SDS011;52193;48.216;-1.698;2023-04-10T11:25:48;11.90;;;11.40;;
16862;SDS011;52193;48.216;-1.698;2023-04-10T11:28:34;11.55;;;11.05;;
16862;SDS011;52193;48.216;-1.698;2023-04-10T11:31:17;11.48;;;11.07;;
16862;SDS011;52193;48.216;-1.698;2023-04-10T11:33:46;12.90;;;12.30;;
16862;SDS011;52193;48.216;-1.698;2023-04-10T11:36:15;12.00;;;11.50;;
16862;SDS011;52193;48.216;-1.698;2023-04-10T11:38:52;12.48;;;11.88;;
16862;SDS011;52193;48.216;-1.698;2023-04-10T11:41:26;10.90;;;10.50;;
16862;SDS011;52193;48.216;-1.698;2023-04-10T11:43:55;13.40;;;12.70;;
16862;SDS011;52193;48.216;-1.698;2023-04-10T11:46:22;14.10;;;13.40;;
16862;SDS011;52193;48.216;-1.698;2023-04-10T11:48:51;11.57;;;11.07;;
16862;SDS011;52193;48.216;-1.698;2023-04-10T11:51:19;10.63;;;10.23;;
16862;SDS011;52193;48.216;-1.698;2023-04-10T11:53:47;10.70;;;10.25;;
16862;SDS011;52193;48.216;-1.698;2023-04-10T11:56:14;10.60;;;10.20;;
16862;SDS011;52193;48.216;-1.698;2023-04-10T11:58:43;10.95;;;10.35;;
16862;SDS011;52193;48.216;-1.698;2023-04-10T12:01:10;8.90;;;8.50;;
16862;SDS011;52193;48.216;-1.698;2023-04-10T12:03:39;9.70;;;9.30;;
16862;SDS011;52193;48.216;-1.698;2023-04-10T12:06:07;9.60;;;9.20;;
16862;SDS011;52193;48.216;-1.698;2023-04-10T12:08:38;8.10;;;7.80;;
16862;SDS011;52193;48.216;-1.698;2023-04-10T12:11:06;8.20;;;7.90;;
16862;SDS011;52193;48.216;-1.698;2023-04-10T12:13:34;8.13;;;7.63;;
16862;SDS011;52193;48.216;-1.698;2023-04-10T12:16:02;7.90;;;7.60;;
16862;SDS011;52193;48.216;-1.698;2023-04-10T12:18:31;6.78;;;6.47;;
16862;SDS011;52193;48.216;-1.698;2023-04-10T12:20:59;6.53;;;6.22;;
16862;SDS011;52193;48.216;-1.698;2023-04-10T12:23:26;5.95;;;5.75;;
16862;SDS011;52193;48.216;-1.698;2023-04-10T12:26:06;5.65;;;5.40;;
16862;SDS011;52193;48.216;-1.698;2023-04-10T12:28:35;6.18;;;5.88;;
16862;SDS011;52193;48.216;-1.698;2023-04-10T12:31:02;5.82;;;5.53;;
16862;SDS011;52193;48.216;-1.698;2023-04-10T12:33:30;6.47;;;6.07;;
16862;SDS011;52193;48.216;-1.698;2023-04-10T12:35:57;5.47;;;5.28;;
16862;SDS011;52193;48.216;-1.698;2023-04-10T12:38:34;6.35;;;6.05;;
16862;SDS011;52193;48.216;-1.698;2023-04-10T12:41:06;5.75;;;5.50;;
16862;SDS011;52193;48.216;-1.698;2023-04-10T12:43:34;6.22;;;5.93;;
16862;SDS011;52193;48.216;-1.698;2023-04-10T12:46:03;6.07;;;5.78;;
16862;SDS011;52193;48.216;-1.698;2023-04-10T12:48:31;5.90;;;5.70;;
16862;SDS011;52193;48.216;-1.698;2023-04-10T12:50:58;5.90;;;5.60;;
16862;SDS011;52193;48.216;-1.698;2023-04-10T12:53:25;5.88;;;5.68;;
16862;SDS011;52193;48.216;-1.698;2023-04-10T12:55:59;5.25;;;4.95;;
16862;SDS011;52193;48.216;-1.698;2023-04-10T12:58:30;5.30;;;5.03;;
16862;SDS011;52193;48.216;-1.698;2023-04-10T13:00:58;5.28;;;5.07;;
16862;SDS011;52193;48.216;-1.698;2023-04-10T13:03:28;5.70;;;5.40;;
16862;SDS011;52193;48.216;-1.698;2023-04-10T13:05:55;5.00;;;4.80;;
16862;SDS011;52193;48.216;-1.698;2023-04-10T13:08:22;4.90;;;4.70;;
16862;SDS011;52193;48.216;-1.698;2023-04-10T13:10:50;6.80;;;6.38;;
16862;SDS011;52193;48.216;-1.698;2023-04-10T13:13:17;8.43;;;7.93;;
16862;SDS011;52193;48.216;-1.698;2023-04-10T13:15:45;7.00;;;6.60;;
16862;SDS011;52193;48.216;-1.698;2023-04-10T13:18:13;5.70;;;5.30;;
16862;SDS011;52193;48.216;-1.698;2023-04-10T13:20:40;4.47;;;4.15;;
16862;SDS011;52193;48.216;-1.698;2023-04-10T13:23:07;5.05;;;4.55;;
16862;SDS011;52193;48.216;-1.698;2023-04-10T13:25:36;3.92;;;3.55;;
16862;SDS011;52193;48.216;-1.698;2023-04-10T13:28:04;4.07;;;3.78;;
16862;SDS011;52193;48.216;-1.698;2023-04-10T13:30:35;5.20;;;4.38;;
16862;SDS011;52193;48.216;-1.698;2023-04-10T13:33:04;3.28;;;2.97;;
16862;SDS011;52193;48.216;-1.698;2023-04-10T13:35:31;4.82;;;4.43;;
16862;SDS011;52193;48.216;-1.698;2023-04-10T13:37:58;4.30;;;3.88;;
16862;SDS011;52193;48.216;-1.698;2023-04-10T13:40:25;4.00;;;3.70;;
16862;SDS011;52193;48.216;-1.698;2023-04-10T13:42:52;3.45;;;2.80;;
16862;SDS011;52193;48.216;-1.698;2023-04-10T13:45:19;3.25;;;3.00;;
16862;SDS011;52193;48.216;-1.698;2023-04-10T13:47:46;3.42;;;3.00;;
16862;SDS011;52193;48.216;-1.698;2023-04-10T13:50:14;3.60;;;2.95;;
16862;SDS011;52193;48.216;-1.698;2023-04-10T13:52:41;4.00;;;2.80;;
16862;SDS011;52193;48.216;-1.698;2023-04-10T13:55:08;2.65;;;2.30;;
16862;SDS011;52193;48.216;-1.698;2023-04-10T13:57:36;4.25;;;2.70;;
16862;SDS011;52193;48.216;-1.698;2023-04-10T14:00:04;3.95;;;2.70;;
16862;SDS011;52193;48.216;-1.698;2023-04-10T14:02:32;2.50;;;2.13;;
16862;SDS011;52193;48.216;-1.698;2023-04-10T14:04:59;3.25;;;2.60;;
16862;SDS011;52193;48.216;-1.698;2023-04-10T14:07:27;4.45;;;3.13;;
16862;SDS011;52193;48.216;-1.698;2023-04-10T14:09:54;3.53;;;3.00;;
16862;SDS011;52193;48.216;-1.698;2023-04-10T14:12:21;3.63;;;3.03;;
16862;SDS011;52193;48.216;-1.698;2023-04-10T14:14:48;5.85;;;3.42;;
16862;SDS011;52193;48.216;-1.698;2023-04-10T14:17:15;4.40;;;2.65;;
16862;SDS011;52193;48.216;-1.698;2023-04-10T14:19:43;4.35;;;2.60;;
16862;SDS011;52193;48.216;-1.698;2023-04-10T14:22:12;5.20;;;2.80;;
16862;SDS011;52193;48.216;-1.698;2023-04-10T14:24:41;3.67;;;2.40;;
16862;SDS011;52193;48.216;-1.698;2023-04-10T14:27:08;4.20;;;2.95;;
16862;SDS011;52193;48.216;-1.698;2023-04-10T14:29:35;3.78;;;2.78;;
16862;SDS011;52193;48.216;-1.698;2023-04-10T14:32:01;6.45;;;3.10;;
16862;SDS011;52193;48.216;-1.698;2023-04-10T14:34:28;7.32;;;2.85;;
16862;SDS011;52193;48.216;-1.698;2023-04-10T14:36:55;5.15;;;2.80;;
16862;SDS011;52193;48.216;-1.698;2023-04-10T14:39:22;5.80;;;2.90;;
16862;SDS011;52193;48.216;-1.698;2023-04-10T14:41:51;5.75;;;3.17;;
16862;SDS011;52193;48.216;-1.698;2023-04-10T14:44:18;5.75;;;2.75;;
16862;SDS011;52193;48.216;-1.698;2023-04-10T14:46:45;4.90;;;2.72;;
16862;SDS011;52193;48.216;-1.698;2023-04-10T14:49:12;6.38;;;3.15;;
16862;SDS011;52193;48.216;-1.698;2023-04-10T14:51:41;4.18;;;2.88;;